Time;durP1;ratioP1;P1;durP2;ratioP2;P2;SDS_P1;SDS_P2;PMS_P1;PMS_P2;Temp;Humidity;BMP_temperature;BMP_pressure;BME280_temperature;BME280_humidity;BME280_pressure;Samples;Min_cycle;Max_cycle;Signal;HPM_P1;HPM_P2
2021/12/12 00:02:07;;;;;;;1.80;0.65;;;-0.70;99.90;;;;;;4902191;29;20031;-80
2021/12/12 00:04:37;;;;;;;1.85;1.50;;;-1.20;99.90;;;;;;4918041;29;20489;-81
2021/12/12 00:07:10;;;;;;;2.95;1.52;;;-0.50;99.90;;;;;;4917241;29;20482;-78
2021/12/12 00:09:43;;;;;;;0.73;0.73;;;-0.80;99.90;;;;;;4912297;29;20037;-80
2021/12/12 00:12:14;;;;;;;0.40;0.40;;;-1.10;99.90;;;;;;4980001;23;20297;-79
2021/12/12 00:14:40;;;;;;;0.98;0.98;;;-1.10;99.90;;;;;;4940080;29;20030;-79
2021/12/12 00:17:08;;;;;;;3.10;1.10;;;-0.30;99.90;;;;;;4955825;29;20035;-80
2021/12/12 00:19:35;;;;;;;0.90;0.90;;;-1.30;99.90;;;;;;4941119;29;20489;-79
2021/12/12 00:22:07;;;;;;;1.00;1.00;;;-0.60;99.90;;;;;;4946117;29;20031;-79
2021/12/12 00:24:33;;;;;;;0.57;0.57;;;-1.40;99.90;;;;;;4959967;29;20078;-79
2021/12/12 00:26:59;;;;;;;1.35;1.25;;;0.00;99.90;;;;;;4958892;29;20038;-78
2021/12/12 00:29:26;;;;;;;1.48;1.48;;;-1.40;99.90;;;;;;4959568;29;20376;-81
2021/12/12 00:31:58;;;;;;;1.30;0.57;;;-1.20;99.90;;;;;;4944783;28;20043;-78
2021/12/12 00:34:30;;;;;;;3.58;1.45;;;-1.40;99.90;;;;;;4942142;29;20027;-81
2021/12/12 00:36:56;;;;;;;0.73;0.63;;;-2.00;99.90;;;;;;4951234;29;20031;-82
2021/12/12 00:39:26;;;;;;;1.02;0.70;;;-2.00;99.90;;;;;;5003727;23;20043;-81
2021/12/12 00:41:57;;;;;;;2.25;1.50;;;-0.90;99.90;;;;;;4942468;28;20035;-83
2021/12/12 00:44:26;;;;;;;0.73;0.73;;;-2.10;99.90;;;;;;5027136;23;20023;-82
2021/12/12 00:46:53;;;;;;;;;;;-3.60;99.90;;;;;;4917155;29;20131;-79
2021/12/12 00:49:19;;;;;;;1.30;1.02;;;-2.00;99.90;;;;;;4913042;29;19915;-80
2021/12/12 00:51:47;;;;;;;0.90;0.90;;;-1.90;99.90;;;;;;4971889;23;20067;-83
2021/12/12 00:54:37;;;;;;;1.67;1.00;;;-3.00;99.90;;;;;;5237861;23;20035;-81
2021/12/12 00:59:44;;;;;;;1.02;0.93;;;-2.00;99.90;;;;;;5542251;23;20071;-81
2021/12/12 01:02:17;;;;;;;0.82;0.82;;;-1.60;99.90;;;;;;4931213;28;20040;-82
2021/12/12 01:04:48;;;;;;;2.20;1.38;;;-2.50;99.90;;;;;;4933464;28;20027;-84
2021/12/12 01:09:57;;;;;;;0.88;0.88;;;-2.20;99.90;;;;;;5170240;23;20043;-83
2021/12/12 01:12:32;;;;;;;0.30;0.30;;;-2.80;99.90;;;;;;4813019;23;20082;-80
2021/12/12 01:15:18;;;;;;;0.30;0.30;;;-1.60;99.90;;;;;;4925451;29;20035;-81
2021/12/12 01:17:47;;;;;;;1.65;0.68;;;-2.40;99.90;;;;;;4913611;29;20143;-82
2021/12/12 01:20:23;;;;;;;1.10;0.85;;;-0.90;99.90;;;;;;4930349;29;20054;-80
2021/12/12 01:22:52;;;;;;;0.65;0.63;;;-2.50;99.90;;;;;;5027955;23;20058;-80
2021/12/12 01:25:26;;;;;;;2.50;0.88;;;-0.70;99.90;;;;;;4948116;29;20063;-80
2021/12/12 01:27:52;;;;;;;1.05;1.05;;;-2.00;99.90;;;;;;4940460;29;20071;-78
2021/12/12 01:30:19;;;;;;;0.93;0.52;;;-1.60;99.90;;;;;;4929580;28;20012;-80
2021/12/12 01:33:03;;;;;;;0.40;0.40;;;-1.90;99.90;;;;;;4939316;28;20008;-83
2021/12/12 01:35:32;;;;;;;0.35;0.35;;;-2.50;99.90;;;;;;4958903;28;20031;-83
2021/12/12 01:40:58;;;;;;;0.20;0.20;;;-2.10;99.90;;;;;;4920202;29;20043;-79
2021/12/12 01:44:06;;;;;;;0.10;0.10;;;-2.70;99.90;;;;;;4925475;29;20024;-83
2021/12/12 01:46:42;;;;;;;0.25;0.25;;;-2.50;99.90;;;;;;4916933;29;20043;-87
2021/12/12 01:49:22;;;;;;;0.70;0.70;;;-1.20;99.90;;;;;;4926729;29;20069;-85
2021/12/12 01:51:58;;;;;;;1.85;1.25;;;-0.70;99.90;;;;;;4931226;29;20130;-80
2021/12/12 01:54:31;;;;;;;0.95;0.95;;;-1.20;99.90;;;;;;4923275;29;20084;-80
2021/12/12 01:57:01;;;;;;;4.15;0.32;;;-1.10;99.90;;;;;;4921311;29;20040;-79
2021/12/12 01:59:33;;;;;;;0.20;0.20;;;-2.50;99.90;;;;;;4919004;29;20024;-80
2021/12/12 02:02:30;;;;;;;0.35;0.35;;;-2.00;99.90;;;;;;4922930;29;20119;-79
2021/12/12 02:05:03;;;;;;;0.35;0.35;;;-1.40;99.90;;;;;;4921064;29;20091;-90
2021/12/12 02:07:34;;;;;;;0.85;0.82;;;-1.50;99.90;;;;;;4921040;29;20036;-80
2021/12/12 02:10:13;;;;;;;0.30;0.30;;;-2.00;99.90;;;;;;4941248;29;20012;-82
2021/12/12 02:12:39;;;;;;;0.50;0.50;;;-1.20;99.90;;;;;;4935336;29;20076;-80
2021/12/12 02:15:09;;;;;;;2.72;0.82;;;-0.90;99.90;;;;;;5107097;23;20079;-80
2021/12/12 02:17:42;;;;;;;0.75;0.47;;;-2.70;99.90;;;;;;5172958;23;20121;-83
2021/12/12 02:20:22;;;;;;;0.10;0.10;;;-3.30;99.90;;;;;;5115016;23;20036;-80
2021/12/12 02:36:21;;;;;;;0.38;0.30;;;-2.50;99.90;;;;;;4946674;29;20158;-80
2021/12/12 02:38:52;;;;;;;0.73;0.70;;;-2.40;99.90;;;;;;4927884;29;20107;-81
2021/12/12 02:41:20;;;;;;;0.75;0.75;;;-2.40;99.90;;;;;;4943091;29;20032;-80
2021/12/12 02:43:53;;;;;;;0.85;0.82;;;-1.80;99.90;;;;;;4928327;29;20034;-78
2021/12/12 02:46:28;;;;;;;0.20;0.20;;;-1.80;99.90;;;;;;4928749;29;20106;-80
2021/12/12 02:49:05;;;;;;;0.20;0.20;;;-2.50;99.90;;;;;;4945942;29;20047;-79
2021/12/12 02:51:31;;;;;;;0.77;0.40;;;-2.20;99.90;;;;;;4929259;29;20071;-81
2021/12/12 02:53:59;;;;;;;1.35;0.60;;;-1.60;99.90;;;;;;4928099;29;20043;-78
2021/12/12 02:56:33;;;;;;;0.75;0.75;;;-2.50;99.90;;;;;;4929067;29;20082;-81
2021/12/12 02:59:00;;;;;;;0.40;0.40;;;-2.20;99.90;;;;;;4947099;29;20087;-79
2021/12/12 03:01:40;;;;;;;0.43;0.35;;;-1.60;99.90;;;;;;4947891;29;20039;-78
2021/12/12 03:04:07;;;;;;;0.30;0.30;;;-3.00;99.90;;;;;;4946173;29;20034;-80
2021/12/12 03:06:36;;;;;;;1.13;0.45;;;-3.10;99.90;;;;;;4929830;29;20034;-80
2021/12/12 03:09:20;;;;;;;0.22;0.22;;;-2.90;99.90;;;;;;4931461;29;20095;-81
2021/12/12 03:11:48;;;;;;;1.27;1.13;;;-3.00;99.90;;;;;;4948452;29;20038;-81
2021/12/12 03:14:14;;;;;;;0.20;0.20;;;-2.90;99.90;;;;;;4919215;29;20048;-83
2021/12/12 03:16:40;;;;;;;0.20;0.20;;;-2.70;99.90;;;;;;4931087;29;20140;-81
2021/12/12 03:19:06;;;;;;;0.70;0.70;;;-2.50;99.90;;;;;;4957355;29;20048;-83
2021/12/12 03:21:37;;;;;;;0.68;0.68;;;-2.40;99.90;;;;;;4958955;29;20047;-80
2021/12/12 03:24:10;;;;;;;0.57;0.57;;;-1.60;99.90;;;;;;4946612;29;20031;-80
2021/12/12 03:26:37;;;;;;;0.32;0.20;;;-2.10;99.90;;;;;;4952724;29;20042;-80
2021/12/12 03:29:06;;;;;;;0.88;0.45;;;-2.50;99.90;;;;;;4951094;29;20253;-80
2021/12/12 03:31:40;;;;;;;0.45;0.45;;;-0.90;99.90;;;;;;4952043;29;20036;-79
2021/12/12 03:34:14;;;;;;;0.90;0.43;;;-2.00;99.90;;;;;;4948688;29;20118;-79
2021/12/12 03:36:41;;;;;;;0.50;0.50;;;-2.00;99.90;;;;;;4944996;29;20511;-81
2021/12/12 03:39:12;;;;;;;0.20;0.20;;;-2.40;99.90;;;;;;4945247;29;20031;-80
2021/12/12 03:41:40;;;;;;;0.98;0.65;;;-1.80;99.90;;;;;;4950590;29;20035;-80
2021/12/12 03:44:11;;;;;;;0.20;0.20;;;-1.90;99.90;;;;;;4952062;29;20023;-82
2021/12/12 03:46:38;;;;;;;0.50;0.50;;;-3.20;99.90;;;;;;4967325;29;20020;-81
2021/12/12 03:49:06;;;;;;;0.30;0.30;;;-3.30;99.90;;;;;;4948673;29;20027;-88
2021/12/12 03:51:34;;;;;;;0.27;0.27;;;-3.40;99.90;;;;;;4956106;29;20038;-84
2021/12/12 03:54:00;;;;;;;0.25;0.25;;;-3.40;99.90;;;;;;4948591;29;20023;-80
2021/12/12 03:56:26;;;;;;;1.30;0.40;;;-3.00;99.90;;;;;;4968791;29;20036;-79
2021/12/12 03:58:53;;;;;;;0.17;0.17;;;-2.40;99.90;;;;;;4952378;29;20023;-79
2021/12/12 04:01:24;;;;;;;0.50;0.50;;;-2.20;99.90;;;;;;4962400;29;20031;-79
2021/12/12 04:03:54;;;;;;;11.13;0.85;;;-3.30;99.90;;;;;;4947497;29;20390;-80
2021/12/12 04:06:21;;;;;;;;;;;-3.30;99.90;;;;;;4948676;29;20074;-79
2021/12/12 04:08:49;;;;;;;0.10;0.10;;;-3.30;99.90;;;;;;4941766;29;20267;-81
2021/12/12 04:11:46;;;;;;;0.30;0.30;;;-3.40;99.90;;;;;;4957878;29;20089;-81
2021/12/12 04:14:12;;;;;;;0.38;0.38;;;-3.50;99.90;;;;;;4956923;29;20035;-82
2021/12/12 04:16:42;;;;;;;0.10;0.10;;;-3.30;99.90;;;;;;4942645;29;20071;-82
2021/12/12 04:19:08;;;;;;;0.52;0.47;;;-3.10;99.90;;;;;;4935906;29;20051;-81
2021/12/12 04:21:36;;;;;;;0.50;0.50;;;-2.80;99.90;;;;;;4919497;29;20034;-80
2021/12/12 04:24:03;;;;;;;0.65;0.47;;;-2.80;99.90;;;;;;4919831;29;20114;-80
2021/12/12 04:26:39;;;;;;;0.45;0.40;;;-2.90;99.90;;;;;;4938831;29;20031;-82
2021/12/12 04:29:15;;;;;;;0.68;0.55;;;-2.60;99.90;;;;;;4921733;29;20020;-82
2021/12/12 04:31:46;;;;;;;0.38;0.38;;;-3.30;99.90;;;;;;4923301;29;20042;-82
2021/12/12 04:34:12;;;;;;;0.38;0.38;;;-3.30;99.90;;;;;;4925291;29;20031;-83
2021/12/12 04:36:43;;;;;;;0.17;0.17;;;-2.70;99.90;;;;;;4945091;29;20027;-78
2021/12/12 04:39:11;;;;;;;0.52;0.30;;;-3.60;99.90;;;;;;4941835;29;20024;-85
2021/12/12 04:41:37;;;;;;;0.20;0.20;;;-3.70;99.90;;;;;;4927104;29;20038;-80
2021/12/12 04:44:04;;;;;;;0.57;0.40;;;-2.80;99.90;;;;;;4921870;29;20035;-83
2021/12/12 04:49:54;;;;;;;0.45;0.45;;;-3.60;99.90;;;;;;4935999;29;20035;-82
2021/12/12 04:52:12;;;;;;;0.40;0.40;;;-3.70;99.90;;;;;;4936819;29;20566;-82
2021/12/12 04:55:18;;;;;;;2.50;1.13;;;-3.70;99.90;;;;;;4919603;29;20319;-85
2021/12/12 04:58:10;;;;;;;0.10;0.10;;;-3.50;99.90;;;;;;4899243;29;20071;-86
2021/12/12 05:00:47;;;;;;;0.32;0.32;;;-3.90;99.90;;;;;;4937677;29;20420;-87
2021/12/12 05:03:19;;;;;;;1.98;1.25;;;-4.00;99.90;;;;;;4936416;29;20026;-88
2021/12/12 05:05:55;;;;;;;0.52;0.52;;;-3.90;99.90;;;;;;4919818;29;20023;-87
2021/12/12 05:08:34;;;;;;;0.88;0.75;;;-2.50;99.90;;;;;;4936905;29;20027;-79
2021/12/12 05:11:08;;;;;;;0.75;0.75;;;-4.00;99.90;;;;;;4936559;29;20035;-89
2021/12/12 05:13:38;;;;;;;0.22;0.22;;;-4.00;99.90;;;;;;4936642;29;20058;-84
2021/12/12 05:16:12;;;;;;;0.10;0.10;;;-4.00;99.90;;;;;;4944891;29;20019;-88
2021/12/12 05:18:50;;;;;;;0.38;0.15;;;-3.90;99.90;;;;;;4938580;29;20036;-85
2021/12/12 05:21:23;;;;;;;0.85;0.85;;;-4.10;99.90;;;;;;4955692;29;20540;-84
2021/12/12 05:23:51;;;;;;;0.10;0.10;;;-3.80;99.90;;;;;;4955875;29;20027;-85
2021/12/12 05:26:26;;;;;;;0.77;0.75;;;-3.50;99.90;;;;;;4938716;29;20050;-91
2021/12/12 05:29:15;;;;;;;0.22;0.22;;;-3.60;99.90;;;;;;4938782;29;20028;-89
2021/12/12 05:31:48;;;;;;;0.20;0.20;;;-3.60;99.90;;;;;;4955342;29;20054;-87
2021/12/12 05:34:19;;;;;;;0.25;0.25;;;-3.80;99.90;;;;;;4955770;29;20384;-83
2021/12/12 05:36:47;;;;;;;0.20;0.20;;;-3.80;99.90;;;;;;4951692;29;20027;-83
2021/12/12 05:39:15;;;;;;;0.23;0.23;;;-3.90;99.90;;;;;;4938273;29;20472;-88
2021/12/12 05:41:41;;;;;;;0.10;0.10;;;-4.00;99.90;;;;;;4938711;29;20104;-82
2021/12/12 05:44:08;;;;;;;0.40;0.40;;;-4.10;99.90;;;;;;4938381;29;20027;-86
2021/12/12 05:46:34;;;;;;;0.30;0.30;;;-4.10;99.90;;;;;;4955154;29;20086;-92
2021/12/12 05:49:04;;;;;;;0.47;0.47;;;-3.10;99.90;;;;;;4938666;29;20118;-89
2021/12/12 05:51:31;;;;;;;0.15;0.15;;;-3.10;99.90;;;;;;4938154;29;20031;-89
2021/12/12 05:53:57;;;;;;;0.20;0.20;;;-2.50;99.90;;;;;;4955782;29;20028;-90
2021/12/12 05:56:30;;;;;;;0.80;0.65;;;-4.10;99.90;;;;;;4938217;29;20114;-89
2021/12/12 05:58:57;;;;;;;0.52;0.30;;;-3.40;99.90;;;;;;4937714;29;20051;-86
2021/12/12 06:01:24;;;;;;;0.10;0.10;;;-2.20;99.90;;;;;;4955017;29;20031;-89
2021/12/12 06:03:51;;;;;;;0.60;0.60;;;-3.60;99.90;;;;;;4954486;29;20086;-87
2021/12/12 06:06:27;;;;;;;0.43;0.43;;;-4.30;99.90;;;;;;4937692;29;20027;-90
2021/12/12 06:08:58;;;;;;;0.40;0.40;;;-4.40;99.90;;;;;;4955388;29;20043;-90
2021/12/12 06:11:26;;;;;;;0.52;0.52;;;-3.40;99.90;;;;;;4938586;29;20042;-91
2021/12/12 06:13:54;;;;;;;1.55;0.70;;;-4.20;99.90;;;;;;4937974;29;20508;-85
2021/12/12 06:16:21;;;;;;;0.10;0.10;;;-4.50;99.90;;;;;;4927751;29;20038;-87
2021/12/12 06:19:00;;;;;;;0.30;0.30;;;-2.60;99.90;;;;;;4934372;29;20035;-82
2021/12/12 06:21:26;;;;;;;;;;;-3.60;99.90;;;;;;4917665;29;20024;-85
2021/12/12 06:23:52;;;;;;;0.10;0.10;;;-2.90;99.90;;;;;;4917893;29;19914;-82
2021/12/12 06:26:20;;;;;;;1.42;0.52;;;-2.60;99.90;;;;;;4934482;29;20031;-85
2021/12/12 06:28:47;;;;;;;0.85;0.75;;;-3.30;99.90;;;;;;4935618;29;20083;-82
2021/12/12 06:31:12;;;;;;;1.45;0.80;;;-2.10;99.90;;;;;;4935774;29;20031;-81
2021/12/12 06:33:39;;;;;;;0.93;0.90;;;-2.40;99.90;;;;;;4935477;29;20034;-83
2021/12/12 06:36:10;;;;;;;0.22;0.20;;;-3.60;99.90;;;;;;4935776;29;20055;-88
2021/12/12 06:38:39;;;;;;;0.40;0.38;;;-3.80;99.90;;;;;;4934705;29;20016;-88
2021/12/12 06:41:07;;;;;;;1.08;0.35;;;-2.60;99.90;;;;;;4919449;29;20067;-83
2021/12/12 06:43:34;;;;;;;0.40;0.40;;;-3.60;99.90;;;;;;4935050;29;20167;-82
2021/12/12 06:46:00;;;;;;;1.85;1.30;;;-3.80;99.90;;;;;;4935877;29;20027;-91
2021/12/12 06:48:26;;;;;;;0.85;0.85;;;-2.80;99.90;;;;;;4934878;29;20070;-89
2021/12/12 06:50:56;;;;;;;0.63;0.52;;;-4.00;99.90;;;;;;4937208;29;20039;-85
2021/12/12 06:53:26;;;;;;;0.30;0.30;;;-4.00;99.90;;;;;;4939735;29;20078;-85
2021/12/12 06:55:53;;;;;;;0.52;0.32;;;-2.10;99.90;;;;;;4943369;29;20179;-87
2021/12/12 06:58:20;;;;;;;1.20;0.88;;;-2.10;99.90;;;;;;4939581;29;20166;-87
2021/12/12 07:00:52;;;;;;;0.15;0.15;;;-3.10;99.90;;;;;;4938819;29;20051;-85
2021/12/12 07:03:19;;;;;;;0.10;0.10;;;-4.10;99.90;;;;;;4938323;29;20024;-81
2021/12/12 07:05:46;;;;;;;0.57;0.57;;;-4.10;99.90;;;;;;4938961;29;20122;-88
2021/12/12 07:08:14;;;;;;;0.20;0.20;;;-2.40;99.90;;;;;;4922195;29;20079;-85
2021/12/12 07:10:40;;;;;;;0.88;0.88;;;-3.60;99.90;;;;;;4921914;29;20059;-87
2021/12/12 07:13:06;;;;;;;0.63;0.60;;;-2.80;99.90;;;;;;4922478;29;20115;-87
2021/12/12 07:15:42;;;;;;;2.53;1.92;;;-2.40;99.90;;;;;;4943320;29;20541;-88
2021/12/12 07:18:11;;;;;;;1.83;1.73;;;-3.70;99.90;;;;;;4947170;29;20507;-88
2021/12/12 07:20:38;;;;;;;0.77;0.77;;;-3.70;99.90;;;;;;4960940;29;20087;-80
2021/12/12 07:23:07;;;;;;;2.40;2.22;;;-3.40;99.90;;;;;;4965126;29;20047;-82
2021/12/12 07:25:38;;;;;;;6.32;4.05;;;-3.50;99.90;;;;;;4953828;29;20054;-84
2021/12/12 07:28:05;;;;;;;1.30;1.20;;;-3.40;99.90;;;;;;4959412;29;20027;-79
2021/12/12 07:30:30;;;;;;;0.32;0.32;;;-2.00;99.90;;;;;;4958912;29;20027;-79
2021/12/12 07:32:58;;;;;;;0.73;0.70;;;-3.30;99.90;;;;;;4957972;29;20066;-80
2021/12/12 07:35:26;;;;;;;8.07;0.75;;;-3.00;99.90;;;;;;4956577;29;20033;-80
2021/12/12 07:37:53;;;;;;;0.65;0.65;;;-3.30;99.90;;;;;;4974655;29;20050;-78
2021/12/12 07:40:20;;;;;;;0.35;0.35;;;-3.20;99.90;;;;;;4954232;29;20031;-83
2021/12/12 07:42:47;;;;;;;0.55;0.55;;;-2.90;99.90;;;;;;4941310;29;20027;-84
2021/12/12 07:45:15;;;;;;;1.35;1.25;;;-2.80;99.90;;;;;;4942329;29;20484;-80
2021/12/12 07:47:41;;;;;;;1.63;1.52;;;-3.00;99.90;;;;;;4959976;29;20464;-79
2021/12/12 07:50:10;;;;;;;0.52;0.47;;;-2.70;99.90;;;;;;4943263;29;20102;-79
2021/12/12 07:52:36;;;;;;;0.40;0.40;;;-2.90;99.90;;;;;;4964878;29;20047;-78
2021/12/12 07:55:04;;;;;;;1.52;0.82;;;-3.00;99.90;;;;;;4964730;29;20062;-79
2021/12/12 07:57:30;;;;;;;1.75;0.65;;;-3.00;99.90;;;;;;4968536;29;20070;-80
2021/12/12 07:59:59;;;;;;;2.03;1.08;;;-2.50;99.90;;;;;;4951074;29;20179;-79
2021/12/12 08:02:25;;;;;;;0.95;0.60;;;-2.90;99.90;;;;;;4947372;29;20035;-80
2021/12/12 08:04:52;;;;;;;0.98;0.98;;;-2.80;99.90;;;;;;4966181;29;20054;-81
2021/12/12 08:07:21;;;;;;;2.03;1.88;;;-2.60;99.90;;;;;;4966490;29;20058;-80
2021/12/12 08:09:48;;;;;;;2.40;1.60;;;-2.40;99.90;;;;;;4946251;29;20046;-80
2021/12/12 08:12:17;;;;;;;0.47;0.47;;;-2.30;99.90;;;;;;4947802;29;20046;-81
2021/12/12 08:14:44;;;;;;;2.05;0.70;;;-1.30;99.90;;;;;;4945206;29;20016;-81
2021/12/12 08:17:12;;;;;;;4.15;0.40;;;-1.30;99.90;;;;;;4964279;29;20027;-80
2021/12/12 08:19:38;;;;;;;0.60;0.60;;;-1.90;99.90;;;;;;4952633;29;20043;-79
2021/12/12 08:22:07;;;;;;;1.63;1.17;;;-1.10;99.90;;;;;;4970970;29;20046;-78
2021/12/12 08:24:34;;;;;;;10.10;2.53;;;-1.70;99.90;;;;;;4956148;29;20345;-80
2021/12/12 08:27:01;;;;;;;3.55;2.30;;;-1.40;99.90;;;;;;4934341;29;20015;-79
2021/12/12 08:29:28;;;;;;;0.77;0.77;;;-0.90;99.90;;;;;;4934470;29;20092;-78
2021/12/12 08:31:54;;;;;;;1.08;0.98;;;-1.20;99.90;;;;;;4949945;29;20305;-81
2021/12/12 08:34:20;;;;;;;1.83;1.08;;;-0.90;99.90;;;;;;4948612;29;20033;-80
2021/12/12 08:36:49;;;;;;;0.63;0.63;;;-0.80;99.90;;;;;;4927399;29;20114;-79
2021/12/12 08:39:16;;;;;;;7.45;2.33;;;-0.80;99.90;;;;;;4942574;29;20027;-80
2021/12/12 08:41:46;;;;;;;6.80;3.67;;;-0.80;99.90;;;;;;4934860;29;20078;-78
2021/12/12 08:44:12;;;;;;;2.13;2.03;;;-0.70;99.90;;;;;;4922666;29;20064;-81
2021/12/12 08:46:41;;;;;;;6.55;2.08;;;-0.50;99.90;;;;;;4919259;29;20280;-81
2021/12/12 08:49:08;;;;;;;3.60;3.28;;;-0.40;99.90;;;;;;4918171;29;20472;-81
2021/12/12 08:51:39;;;;;;;7.82;4.68;;;-0.30;99.90;;;;;;4935985;29;20115;-80
2021/12/12 08:54:22;;;;;;;7.13;5.15;;;-0.20;99.90;;;;;;4917489;29;20039;-78
2021/12/12 08:56:51;;;;;;;6.55;4.18;;;-0.10;99.90;;;;;;4935137;29;20045;-80
2021/12/12 08:59:26;;;;;;;6.10;4.95;;;0.00;99.90;;;;;;4936623;29;20106;-81
2021/12/12 09:01:55;;;;;;;4.35;3.95;;;0.10;99.90;;;;;;4934268;29;20488;-79
2021/12/12 09:04:21;;;;;;;;;;;0.20;99.90;;;;;;4918115;29;20038;-79
2021/12/12 09:07:05;;;;;;;4.05;3.65;;;0.30;99.90;;;;;;4918694;29;19911;-79
2021/12/12 09:09:56;;;;;;;5.18;4.15;;;0.60;99.90;;;;;;4916048;29;20484;-79
2021/12/12 09:12:26;;;;;;;8.43;4.82;;;0.60;99.90;;;;;;4883353;29;20051;-79
2021/12/12 09:14:58;;;;;;;5.72;4.70;;;0.60;99.90;;;;;;4914567;29;20028;-78
2021/12/12 09:17:37;;;;;;;13.02;3.50;;;0.60;99.90;;;;;;4933717;29;20035;-79
2021/12/12 09:20:17;;;;;;;4.20;3.80;;;0.70;99.90;;;;;;4934657;29;20063;-78
2021/12/12 09:22:56;;;;;;;4.60;3.80;;;0.80;99.90;;;;;;4934654;29;20604;-80
2021/12/12 09:25:50;;;;;;;2.38;2.25;;;0.90;99.90;;;;;;4936466;29;20023;-80
2021/12/12 09:28:24;;;;;;;2.28;2.00;;;1.10;99.90;;;;;;4953482;29;20027;-80
2021/12/12 09:30:51;;;;;;;3.15;1.50;;;1.00;99.90;;;;;;4936185;29;20510;-79
2021/12/12 09:33:36;;;;;;;6.45;4.63;;;1.10;99.90;;;;;;4934718;29;20447;-80
2021/12/12 09:36:11;;;;;;;4.22;2.63;;;1.20;99.90;;;;;;4936104;29;20027;-79
2021/12/12 09:38:40;;;;;;;7.80;2.88;;;1.20;99.90;;;;;;4952989;29;20444;-79
2021/12/12 09:41:49;;;;;;;5.78;3.63;;;1.20;99.90;;;;;;4954922;29;20428;-79
2021/12/12 09:44:37;;;;;;;1.58;1.48;;;1.30;99.90;;;;;;4952525;29;20388;-80
2021/12/12 09:53:18;;;;;;;11.40;5.22;;;1.80;99.90;;;;;;4952974;29;20085;-80
2021/12/12 09:55:54;;;;;;;2.33;1.70;;;2.00;99.90;;;;;;4953657;29;20023;-80
2021/12/12 09:58:37;;;;;;;3.10;1.98;;;2.00;99.90;;;;;;4937450;29;20066;-80
2021/12/12 10:01:25;;;;;;;2.05;1.88;;;1.90;99.90;;;;;;4937111;29;20035;-80
2021/12/12 10:04:20;;;;;;;4.18;3.00;;;2.00;99.90;;;;;;4937407;29;20031;-80
2021/12/12 10:06:59;;;;;;;1.40;1.30;;;1.90;99.90;;;;;;4941961;29;20031;-80
2021/12/12 10:09:44;;;;;;;1.50;1.40;;;1.90;99.90;;;;;;4937455;29;20019;-79
2021/12/12 10:12:22;;;;;;;2.17;1.65;;;1.90;99.90;;;;;;4936835;29;20047;-80
2021/12/12 10:15:08;;;;;;;1.67;1.58;;;1.80;99.90;;;;;;4937501;29;20030;-80
2021/12/12 10:17:56;;;;;;;2.75;1.30;;;2.00;99.90;;;;;;4899415;29;20102;-80
2021/12/12 10:20:24;;;;;;;1.77;1.48;;;2.20;99.90;;;;;;4898404;29;20445;-79
2021/12/12 10:23:07;;;;;;;6.15;1.55;;;2.20;99.90;;;;;;4915166;29;20028;-79
2021/12/12 10:25:44;;;;;;;2.47;1.45;;;2.50;99.90;;;;;;4897872;29;20028;-79
2021/12/12 10:28:21;;;;;;;4.53;2.05;;;2.60;99.90;;;;;;4898215;29;20393;-79
2021/12/12 10:30:55;;;;;;;2.97;2.00;;;2.80;99.90;;;;;;4898100;29;20492;-79
2021/12/12 10:33:35;;;;;;;3.70;2.50;;;3.00;99.90;;;;;;4899415;29;20067;-80
2021/12/12 10:36:07;;;;;;;3.60;2.13;;;3.20;99.90;;;;;;4914763;29;20032;-79
2021/12/12 10:38:52;;;;;;;1.55;1.10;;;3.50;99.90;;;;;;4897998;29;20067;-80
2021/12/12 10:41:27;;;;;;;4.20;2.10;;;3.70;99.90;;;;;;4916278;29;20060;-79
2021/12/12 10:43:54;;;;;;;1.40;1.30;;;3.60;99.90;;;;;;4914150;29;20024;-80
2021/12/12 10:46:53;;;;;;;2.55;1.40;;;3.50;99.90;;;;;;4913162;29;20032;-80
2021/12/12 10:49:41;;;;;;;1.58;1.42;;;3.40;99.90;;;;;;4889449;29;20071;-79
2021/12/12 10:52:15;;;;;;;1.55;1.30;;;4.10;99.90;;;;;;4898376;29;20048;-80
2021/12/12 10:54:54;;;;;;;1.75;1.65;;;3.40;99.90;;;;;;4898258;29;20032;-79
2021/12/12 10:57:27;;;;;;;1.83;1.48;;;3.40;99.90;;;;;;4915608;29;20040;-80
2021/12/12 11:00:03;;;;;;;4.32;2.10;;;3.40;99.90;;;;;;4898214;29;20039;-81
2021/12/12 11:02:32;;;;;;;34.88;14.98;;;3.40;99.90;;;;;;4899114;29;20485;-80
2021/12/12 11:05:04;;;;;;;;;;;3.50;99.90;;;;;;4899132;29;20029;-80
2021/12/12 11:07:36;;;;;;;6.22;4.25;;;3.60;99.90;;;;;;4914818;29;19911;-80
2021/12/12 11:10:17;;;;;;;3.13;2.22;;;3.70;99.90;;;;;;4914256;29;20036;-81
2021/12/12 11:12:57;;;;;;;2.03;1.88;;;3.70;99.90;;;;;;4900523;29;20493;-81
2021/12/12 11:15:33;;;;;;;2.30;1.60;;;3.50;99.90;;;;;;4901947;29;20036;-80
2021/12/12 11:18:07;;;;;;;1.98;1.27;;;3.60;99.90;;;;;;4902240;29;20024;-81
2021/12/12 11:20:43;;;;;;;2.50;1.75;;;3.60;99.90;;;;;;4918572;29;20052;-80
2021/12/12 11:23:29;;;;;;;2.22;1.75;;;3.60;99.90;;;;;;4902332;29;20485;-81
2021/12/12 11:26:02;;;;;;;2.88;1.73;;;3.70;99.90;;;;;;4916000;29;20024;-80
2021/12/12 11:28:35;;;;;;;2.60;1.65;;;3.90;99.90;;;;;;4895497;29;20025;-80
2021/12/12 11:31:11;;;;;;;2.00;1.70;;;4.10;99.90;;;;;;4901988;29;20036;-80
2021/12/12 11:33:38;;;;;;;9.90;2.38;;;4.40;99.90;;;;;;4900814;29;20397;-81
2021/12/12 11:36:08;;;;;;;2.05;1.58;;;4.50;99.90;;;;;;4918649;29;20040;-80
2021/12/12 11:38:46;;;;;;;2.13;1.50;;;4.60;99.90;;;;;;4903097;29;20490;-80
2021/12/12 11:41:25;;;;;;;5.95;2.42;;;4.80;99.90;;;;;;4919740;29;20028;-80
2021/12/12 11:43:57;;;;;;;;;;;4.80;99.90;;;;;;4902015;29;20047;-79
2021/12/12 11:46:40;;;;;;;3.38;2.03;;;4.80;99.90;;;;;;4919678;29;19918;-80
2021/12/12 11:49:16;;;;;;;1.20;1.10;;;4.90;99.90;;;;;;4902542;29;20132;-80
2021/12/12 11:51:48;;;;;;;2.70;1.40;;;5.10;99.90;;;;;;4919702;29;20043;-81
2021/12/12 11:54:40;;;;;;;2.00;1.75;;;5.30;99.90;;;;;;4922036;29;20490;-81
2021/12/12 11:57:38;;;;;;;2.47;2.10;;;5.40;99.90;;;;;;4903984;29;20024;-81
2021/12/12 12:00:16;;;;;;;3.60;3.30;;;5.40;99.90;;;;;;4904181;29;20036;-81
2021/12/12 12:02:57;;;;;;;5.20;2.95;;;5.50;99.90;;;;;;4921800;29;20075;-81
2021/12/12 12:05:43;;;;;;;2.88;2.30;;;5.60;99.90;;;;;;4904058;29;20040;-81
2021/12/12 12:08:45;;;;;;;4.43;2.28;;;5.60;99.90;;;;;;4897889;29;20095;-80
2021/12/12 12:11:33;;;;;;;3.83;2.50;;;5.50;99.90;;;;;;4903142;29;20382;-81
2021/12/12 12:14:18;;;;;;;3.80;2.13;;;5.40;99.90;;;;;;4920792;29;20441;-81
2021/12/12 12:17:04;;;;;;;2.40;1.67;;;5.20;99.90;;;;;;4929700;29;20377;-81
2021/12/12 12:20:01;;;;;;;6.07;2.50;;;5.20;99.90;;;;;;4940463;29;20236;-81
2021/12/12 12:22:50;;;;;;;2.78;1.98;;;5.40;99.90;;;;;;4935843;29;20050;-81
2021/12/12 12:28:30;;;;;;;3.83;2.20;;;5.50;99.90;;;;;;4957797;29;20404;-80
2021/12/12 12:31:33;;;;;;;3.75;2.50;;;5.50;99.90;;;;;;4939532;29;20085;-80
2021/12/12 12:34:21;;;;;;;3.70;2.25;;;5.40;99.90;;;;;;4944349;29;20055;-80
2021/12/12 12:37:28;;;;;;;4.55;2.58;;;5.40;99.90;;;;;;4942515;29;20032;-80
2021/12/12 12:40:31;;;;;;;2.80;1.98;;;5.40;99.90;;;;;;4956628;29;20027;-79
2021/12/12 12:43:16;;;;;;;3.70;2.25;;;5.40;99.90;;;;;;4937950;29;20063;-80
2021/12/12 12:46:30;;;;;;;4.13;2.10;;;5.50;99.90;;;;;;4939673;29;20043;-82
2021/12/12 12:49:07;;;;;;;4.72;2.15;;;5.70;99.90;;;;;;4938207;29;20020;-81
2021/12/12 12:52:00;;;;;;;7.43;3.58;;;5.80;99.90;;;;;;4957379;29;20552;-80
2021/12/12 12:54:30;;;;;;;3.28;2.60;;;5.90;99.90;;;;;;4955338;29;20027;-80
2021/12/12 12:57:17;;;;;;;;;;;5.90;99.90;;;;;;4939325;29;20472;-81
2021/12/12 13:00:06;;;;;;;3.45;3.08;;;5.90;99.90;;;;;;4938804;29;19906;-81
2021/12/12 13:02:48;;;;;;;4.53;2.80;;;6.20;99.90;;;;;;4956428;29;20027;-80
2021/12/12 13:05:33;;;;;;;3.28;2.08;;;6.00;99.90;;;;;;4939601;29;20522;-81
2021/12/12 13:08:17;;;;;;;2.05;1.85;;;5.90;99.90;;;;;;4938208;29;20472;-80
2021/12/12 13:10:46;;;;;;;4.80;2.33;;;5.90;99.90;;;;;;4955430;29;20051;-77
2021/12/12 13:13:18;;;;;;;2.85;1.77;;;5.90;99.90;;;;;;4937110;29;20073;-78
2021/12/12 13:15:55;;;;;;;2.80;2.30;;;5.90;99.90;;;;;;4931360;29;20031;-78
2021/12/12 13:18:43;;;;;;;2.97;1.85;;;5.90;99.90;;;;;;4917368;29;20036;-77
2021/12/12 13:21:50;;;;;;;3.70;2.03;;;6.10;99.90;;;;;;4918307;29;20437;-77
2021/12/12 13:24:21;;;;;;;3.22;1.80;;;6.10;99.90;;;;;;4918711;29;20031;-78
2021/12/12 13:27:37;;;;;;;1.75;1.35;;;6.10;99.90;;;;;;4918270;29;20031;-78
2021/12/12 13:30:15;;;;;;;4.15;2.20;;;6.10;99.90;;;;;;4934853;29;20020;-77
2021/12/12 13:32:50;;;;;;;1.98;1.88;;;6.00;99.90;;;;;;4935319;29;20079;-78
2021/12/12 13:35:26;;;;;;;3.38;1.95;;;6.00;99.90;;;;;;4934315;29;20056;-78
2021/12/12 13:38:19;;;;;;;1.70;1.60;;;5.90;99.90;;;;;;4935065;29;20103;-78
2021/12/12 13:41:13;;;;;;;2.28;1.35;;;5.80;99.90;;;;;;4935557;29;20477;-78
2021/12/12 13:43:58;;;;;;;1.83;1.48;;;5.80;99.90;;;;;;4934825;29;20035;-77
2021/12/12 13:46:51;;;;;;;4.20;2.67;;;5.90;99.90;;;;;;4916720;29;20031;-77
2021/12/12 13:49:29;;;;;;;3.33;1.63;;;5.90;99.90;;;;;;4933635;29;20059;-77
2021/12/12 13:52:06;;;;;;;5.68;3.17;;;5.90;99.90;;;;;;4918533;29;20130;-78
2021/12/12 13:55:16;;;;;;;4.47;3.30;;;5.80;99.90;;;;;;4934147;29;20023;-77
2021/12/12 13:58:23;;;;;;;4.78;2.78;;;5.70;99.90;;;;;;4823178;29;20083;-78
2021/12/12 14:01:04;;;;;;;3.97;2.15;;;5.60;99.90;;;;;;4815793;29;20034;-78
2021/12/12 14:03:45;;;;;;;3.50;1.85;;;5.60;99.90;;;;;;4923899;29;20091;-78
2021/12/12 14:06:15;;;;;;;3.40;2.33;;;5.70;99.90;;;;;;4935763;29;20063;-79